sensor_id;sensor_type;location;lat;lon;timestamp;P1;durP1;ratioP1;P2;durP2;ratioP2
4575;SDS011;2300;51.874;8.430;2023-10-19T00:02:45;23.90;;;14.63;;
4575;SDS011;2300;51.874;8.430;2023-10-19T00:05:16;19.97;;;14.90;;
4575;SDS011;2300;51.874;8.430;2023-10-19T00:07:43;21.90;;;15.47;;
4575;SDS011;2300;51.874;8.430;2023-10-19T00:10:09;22.20;;;14.77;;
4575;SDS011;2300;51.874;8.430;2023-10-19T00:12:40;21.10;;;15.10;;
4575;SDS011;2300;51.874;8.430;2023-10-19T00:15:06;22.73;;;15.40;;
4575;SDS011;2300;51.874;8.430;2023-10-19T00:17:35;22.47;;;16.43;;
4575;SDS011;2300;51.874;8.430;2023-10-19T00:20:05;23.33;;;16.73;;
4575;SDS011;2300;51.874;8.430;2023-10-19T00:22:46;21.63;;;15.03;;
4575;SDS011;2300;51.874;8.430;2023-10-19T00:25:13;23.10;;;16.03;;
4575;SDS011;2300;51.874;8.430;2023-10-19T00:27:39;24.30;;;16.97;;
4575;SDS011;2300;51.874;8.430;2023-10-19T00:30:07;22.67;;;16.20;;
4575;SDS011;2300;51.874;8.430;2023-10-19T00:32:35;25.17;;;17.20;;
4575;SDS011;2300;51.874;8.430;2023-10-19T00:35:05;26.37;;;16.90;;
4575;SDS011;2300;51.874;8.430;2023-10-19T00:37:51;25.47;;;17.53;;
4575;SDS011;2300;51.874;8.430;2023-10-19T00:40:21;23.30;;;16.23;;
4575;SDS011;2300;51.874;8.430;2023-10-19T00:43:02;21.63;;;16.60;;
4575;SDS011;2300;51.874;8.430;2023-10-19T00:45:31;24.07;;;16.47;;
4575;SDS011;2300;51.874;8.430;2023-10-19T00:48:05;25.13;;;17.03;;
4575;SDS011;2300;51.874;8.430;2023-10-19T00:50:37;29.13;;;18.10;;
4575;SDS011;2300;51.874;8.430;2023-10-19T00:53:05;27.00;;;17.20;;
4575;SDS011;2300;51.874;8.430;2023-10-19T00:55:33;29.03;;;17.63;;
4575;SDS011;2300;51.874;8.430;2023-10-19T00:58:01;25.73;;;17.80;;
4575;SDS011;2300;51.874;8.430;2023-10-19T01:00:34;26.80;;;18.20;;
4575;SDS011;2300;51.874;8.430;2023-10-19T01:03:08;26.30;;;17.97;;
4575;SDS011;2300;51.874;8.430;2023-10-19T01:05:40;24.23;;;17.97;;
4575;SDS011;2300;51.874;8.430;2023-10-19T01:08:13;26.57;;;18.77;;
4575;SDS011;2300;51.874;8.430;2023-10-19T01:10:48;25.93;;;17.77;;
4575;SDS011;2300;51.874;8.430;2023-10-19T01:13:17;26.90;;;18.77;;
4575;SDS011;2300;51.874;8.430;2023-10-19T01:15:46;28.20;;;18.23;;
4575;SDS011;2300;51.874;8.430;2023-10-19T01:18:15;28.90;;;18.50;;
4575;SDS011;2300;51.874;8.430;2023-10-19T01:20:44;26.17;;;18.70;;
4575;SDS011;2300;51.874;8.430;2023-10-19T01:23:17;26.27;;;18.67;;
4575;SDS011;2300;51.874;8.430;2023-10-19T01:25:53;24.70;;;18.33;;
4575;SDS011;2300;51.874;8.430;2023-10-19T01:28:33;27.23;;;18.80;;
4575;SDS011;2300;51.874;8.430;2023-10-19T01:31:12;27.83;;;17.73;;
4575;SDS011;2300;51.874;8.430;2023-10-19T01:33:41;29.43;;;18.03;;
4575;SDS011;2300;51.874;8.430;2023-10-19T01:36:09;25.30;;;17.80;;
4575;SDS011;2300;51.874;8.430;2023-10-19T01:38:50;25.80;;;17.90;;
4575;SDS011;2300;51.874;8.430;2023-10-19T01:41:19;26.67;;;17.90;;
4575;SDS011;2300;51.874;8.430;2023-10-19T01:43:46;26.17;;;17.80;;
4575;SDS011;2300;51.874;8.430;2023-10-19T01:46:17;26.77;;;18.03;;
4575;SDS011;2300;51.874;8.430;2023-10-19T01:48:49;30.37;;;19.23;;
4575;SDS011;2300;51.874;8.430;2023-10-19T01:51:19;25.70;;;18.70;;
4575;SDS011;2300;51.874;8.430;2023-10-19T01:53:47;30.73;;;20.97;;
4575;SDS011;2300;51.874;8.430;2023-10-19T01:56:15;30.70;;;20.67;;
4575;SDS011;2300;51.874;8.430;2023-10-19T01:58:43;28.07;;;20.27;;
4575;SDS011;2300;51.874;8.430;2023-10-19T02:01:11;28.67;;;20.70;;
4575;SDS011;2300;51.874;8.430;2023-10-19T02:03:45;31.37;;;19.83;;
4575;SDS011;2300;51.874;8.430;2023-10-19T02:06:13;29.70;;;20.53;;
4575;SDS011;2300;51.874;8.430;2023-10-19T02:08:45;30.63;;;20.90;;
4575;SDS011;2300;51.874;8.430;2023-10-19T02:11:14;32.07;;;21.33;;
4575;SDS011;2300;51.874;8.430;2023-10-19T02:13:44;27.93;;;19.23;;
4575;SDS011;2300;51.874;8.430;2023-10-19T02:16:11;31.03;;;20.30;;
4575;SDS011;2300;51.874;8.430;2023-10-19T02:18:39;29.20;;;20.33;;
4575;SDS011;2300;51.874;8.430;2023-10-19T02:21:05;28.07;;;20.50;;
4575;SDS011;2300;51.874;8.430;2023-10-19T02:23:32;31.87;;;20.60;;
4575;SDS011;2300;51.874;8.430;2023-10-19T02:26:00;33.07;;;21.23;;
4575;SDS011;2300;51.874;8.430;2023-10-19T02:28:29;31.80;;;21.93;;
4575;SDS011;2300;51.874;8.430;2023-10-19T02:30:57;31.67;;;20.60;;
4575;SDS011;2300;51.874;8.430;2023-10-19T02:33:32;28.43;;;20.53;;
4575;SDS011;2300;51.874;8.430;2023-10-19T02:35:58;30.37;;;21.27;;
4575;SDS011;2300;51.874;8.430;2023-10-19T02:38:25;28.83;;;19.90;;
4575;SDS011;2300;51.874;8.430;2023-10-19T02:40:51;27.37;;;19.30;;
4575;SDS011;2300;51.874;8.430;2023-10-19T02:43:17;27.33;;;19.10;;
4575;SDS011;2300;51.874;8.430;2023-10-19T02:45:46;30.67;;;19.97;;
4575;SDS011;2300;51.874;8.430;2023-10-19T02:48:13;27.67;;;19.27;;
4575;SDS011;2300;51.874;8.430;2023-10-19T02:50:38;26.53;;;19.30;;
4575;SDS011;2300;51.874;8.430;2023-10-19T02:53:05;25.73;;;17.33;;
4575;SDS011;2300;51.874;8.430;2023-10-19T02:55:31;22.50;;;16.07;;
4575;SDS011;2300;51.874;8.430;2023-10-19T02:57:58;25.87;;;16.70;;
4575;SDS011;2300;51.874;8.430;2023-10-19T03:00:25;23.07;;;16.80;;
4575;SDS011;2300;51.874;8.430;2023-10-19T03:02:59;22.13;;;15.57;;
4575;SDS011;2300;51.874;8.430;2023-10-19T03:05:26;23.00;;;15.73;;
4575;SDS011;2300;51.874;8.430;2023-10-19T03:07:51;19.53;;;14.73;;
4575;SDS011;2300;51.874;8.430;2023-10-19T03:10:18;22.20;;;14.87;;
4575;SDS011;2300;51.874;8.430;2023-10-19T03:12:49;19.97;;;15.30;;
4575;SDS011;2300;51.874;8.430;2023-10-19T03:15:16;18.70;;;14.63;;
4575;SDS011;2300;51.874;8.430;2023-10-19T03:17:44;19.17;;;14.33;;
4575;SDS011;2300;51.874;8.430;2023-10-19T03:20:12;21.10;;;14.20;;
4575;SDS011;2300;51.874;8.430;2023-10-19T03:22:41;18.33;;;13.97;;
4575;SDS011;2300;51.874;8.430;2023-10-19T03:25:08;19.57;;;14.67;;
4575;SDS011;2300;51.874;8.430;2023-10-19T03:28:00;19.60;;;13.43;;
4575;SDS011;2300;51.874;8.430;2023-10-19T03:30:33;20.30;;;14.53;;
4575;SDS011;2300;51.874;8.430;2023-10-19T03:33:03;18.33;;;13.70;;
4575;SDS011;2300;51.874;8.430;2023-10-19T03:35:31;23.10;;;15.43;;
4575;SDS011;2300;51.874;8.430;2023-10-19T03:38:00;17.67;;;14.07;;
4575;SDS011;2300;51.874;8.430;2023-10-19T03:40:33;21.93;;;15.17;;
4575;SDS011;2300;51.874;8.430;2023-10-19T03:43:03;19.10;;;14.13;;
4575;SDS011;2300;51.874;8.430;2023-10-19T03:45:33;18.90;;;14.53;;
4575;SDS011;2300;51.874;8.430;2023-10-19T03:48:04;18.53;;;14.37;;
4575;SDS011;2300;51.874;8.430;2023-10-19T03:50:35;19.57;;;14.77;;
4575;SDS011;2300;51.874;8.430;2023-10-19T03:53:02;19.07;;;14.40;;
4575;SDS011;2300;51.874;8.430;2023-10-19T03:55:29;18.80;;;14.20;;
4575;SDS011;2300;51.874;8.430;2023-10-19T03:57:56;18.87;;;14.67;;
4575;SDS011;2300;51.874;8.430;2023-10-19T04:00:22;19.23;;;14.13;;
4575;SDS011;2300;51.874;8.430;2023-10-19T04:02:52;21.83;;;15.43;;
4575;SDS011;2300;51.874;8.430;2023-10-19T04:05:20;19.67;;;15.13;;
4575;SDS011;2300;51.874;8.430;2023-10-19T04:07:49;21.70;;;15.20;;
4575;SDS011;2300;51.874;8.430;2023-10-19T04:10:19;19.70;;;14.40;;
4575;SDS011;2300;51.874;8.430;2023-10-19T04:13:03;20.43;;;14.57;;
4575;SDS011;2300;51.874;8.430;2023-10-19T04:15:34;20.90;;;14.53;;
4575;SDS011;2300;51.874;8.430;2023-10-19T04:18:02;23.33;;;15.80;;
4575;SDS011;2300;51.874;8.430;2023-10-19T04:20:33;18.30;;;14.37;;
4575;SDS011;2300;51.874;8.430;2023-10-19T04:23:09;22.40;;;15.80;;
4575;SDS011;2300;51.874;8.430;2023-10-19T04:25:39;20.37;;;15.00;;
4575;SDS011;2300;51.874;8.430;2023-10-19T04:28:06;18.97;;;14.50;;
4575;SDS011;2300;51.874;8.430;2023-10-19T04:30:32;19.33;;;15.13;;
4575;SDS011;2300;51.874;8.430;2023-10-19T04:33:01;20.97;;;15.10;;
4575;SDS011;2300;51.874;8.430;2023-10-19T04:35:32;21.97;;;15.33;;
4575;SDS011;2300;51.874;8.430;2023-10-19T04:37:59;19.87;;;14.60;;
4575;SDS011;2300;51.874;8.430;2023-10-19T04:40:27;21.13;;;15.53;;
4575;SDS011;2300;51.874;8.430;2023-10-19T04:42:54;22.27;;;15.57;;
4575;SDS011;2300;51.874;8.430;2023-10-19T04:45:20;19.67;;;15.20;;
4575;SDS011;2300;51.874;8.430;2023-10-19T04:47:49;19.07;;;14.57;;
4575;SDS011;2300;51.874;8.430;2023-10-19T04:50:17;20.10;;;15.53;;
4575;SDS011;2300;51.874;8.430;2023-10-19T04:52:44;19.90;;;15.47;;
4575;SDS011;2300;51.874;8.430;2023-10-19T04:55:10;19.97;;;15.40;;
4575;SDS011;2300;51.874;8.430;2023-10-19T04:57:38;21.17;;;15.47;;
4575;SDS011;2300;51.874;8.430;2023-10-19T05:00:05;22.17;;;15.70;;
4575;SDS011;2300;51.874;8.430;2023-10-19T05:02:38;20.43;;;15.17;;
4575;SDS011;2300;51.874;8.430;2023-10-19T05:05:04;20.03;;;15.43;;
4575;SDS011;2300;51.874;8.430;2023-10-19T05:07:31;18.90;;;14.63;;
4575;SDS011;2300;51.874;8.430;2023-10-19T05:09:58;20.03;;;15.10;;
4575;SDS011;2300;51.874;8.430;2023-10-19T05:12:25;22.80;;;17.37;;
4575;SDS011;2300;51.874;8.430;2023-10-19T05:14:53;20.20;;;15.77;;
4575;SDS011;2300;51.874;8.430;2023-10-19T05:17:20;21.70;;;15.73;;
4575;SDS011;2300;51.874;8.430;2023-10-19T05:19:48;20.07;;;14.80;;
4575;SDS011;2300;51.874;8.430;2023-10-19T05:22:16;19.67;;;15.10;;
4575;SDS011;2300;51.874;8.430;2023-10-19T05:24:42;19.47;;;15.23;;
4575;SDS011;2300;51.874;8.430;2023-10-19T05:27:09;20.70;;;14.50;;
4575;SDS011;2300;51.874;8.430;2023-10-19T05:29:36;18.97;;;14.50;;
4575;SDS011;2300;51.874;8.430;2023-10-19T05:32:04;20.03;;;14.40;;
4575;SDS011;2300;51.874;8.430;2023-10-19T05:34:31;19.87;;;15.07;;
4575;SDS011;2300;51.874;8.430;2023-10-19T05:37:00;20.87;;;14.87;;
4575;SDS011;2300;51.874;8.430;2023-10-19T05:39:27;17.63;;;14.27;;
4575;SDS011;2300;51.874;8.430;2023-10-19T05:41:56;21.97;;;15.10;;
4575;SDS011;2300;51.874;8.430;2023-10-19T05:44:24;16.77;;;13.07;;
4575;SDS011;2300;51.874;8.430;2023-10-19T05:46:51;18.93;;;13.70;;
4575;SDS011;2300;51.874;8.430;2023-10-19T05:49:19;18.60;;;13.63;;
4575;SDS011;2300;51.874;8.430;2023-10-19T05:51:45;17.07;;;13.57;;
4575;SDS011;2300;51.874;8.430;2023-10-19T05:54:12;19.27;;;14.50;;
4575;SDS011;2300;51.874;8.430;2023-10-19T05:56:39;15.83;;;12.73;;
4575;SDS011;2300;51.874;8.430;2023-10-19T05:59:06;19.27;;;13.03;;
4575;SDS011;2300;51.874;8.430;2023-10-19T06:01:34;18.07;;;12.80;;
4575;SDS011;2300;51.874;8.430;2023-10-19T06:04:02;17.17;;;13.40;;
4575;SDS011;2300;51.874;8.430;2023-10-19T06:06:30;16.67;;;12.60;;
4575;SDS011;2300;51.874;8.430;2023-10-19T06:08:57;15.23;;;13.53;;
4575;SDS011;2300;51.874;8.430;2023-10-19T06:11:23;17.63;;;12.50;;
4575;SDS011;2300;51.874;8.430;2023-10-19T06:13:57;15.87;;;12.53;;
4575;SDS011;2300;51.874;8.430;2023-10-19T06:16:24;16.97;;;13.30;;
4575;SDS011;2300;51.874;8.430;2023-10-19T06:18:50;15.37;;;12.40;;
4575;SDS011;2300;51.874;8.430;2023-10-19T06:21:17;16.47;;;12.83;;
4575;SDS011;2300;51.874;8.430;2023-10-19T06:23:46;17.20;;;12.33;;
4575;SDS011;2300;51.874;8.430;2023-10-19T06:26:13;16.47;;;12.93;;
4575;SDS011;2300;51.874;8.430;2023-10-19T06:28:40;15.87;;;11.97;;
4575;SDS011;2300;51.874;8.430;2023-10-19T06:31:06;16.57;;;12.53;;
4575;SDS011;2300;51.874;8.430;2023-10-19T06:33:33;15.77;;;12.57;;
4575;SDS011;2300;51.874;8.430;2023-10-19T06:36:01;16.27;;;12.40;;
4575;SDS011;2300;51.874;8.430;2023-10-19T06:38:29;16.43;;;12.17;;
4575;SDS011;2300;51.874;8.430;2023-10-19T06:40:58;14.60;;;11.83;;
4575;SDS011;2300;51.874;8.430;2023-10-19T06:43:27;13.70;;;11.43;;
4575;SDS011;2300;51.874;8.430;2023-10-19T06:45:55;16.13;;;11.87;;
4575;SDS011;2300;51.874;8.430;2023-10-19T06:48:22;16.23;;;12.60;;
4575;SDS011;2300;51.874;8.430;2023-10-19T06:50:49;14.97;;;12.20;;
4575;SDS011;2300;51.874;8.430;2023-10-19T06:53:15;14.43;;;11.87;;
4575;SDS011;2300;51.874;8.430;2023-10-19T06:55:42;14.97;;;11.60;;
4575;SDS011;2300;51.874;8.430;2023-10-19T06:58:11;13.83;;;11.20;;
4575;SDS011;2300;51.874;8.430;2023-10-19T07:00:40;15.07;;;10.63;;
4575;SDS011;2300;51.874;8.430;2023-10-19T07:03:08;11.50;;;10.23;;
4575;SDS011;2300;51.874;8.430;2023-10-19T07:05:35;14.20;;;10.77;;
4575;SDS011;2300;51.874;8.430;2023-10-19T07:08:02;11.87;;;9.50;;
4575;SDS011;2300;51.874;8.430;2023-10-19T07:10:32;12.13;;;9.20;;
4575;SDS011;2300;51.874;8.430;2023-10-19T07:12:59;13.50;;;8.90;;
4575;SDS011;2300;51.874;8.430;2023-10-19T07:15:28;13.30;;;9.17;;
4575;SDS011;2300;51.874;8.430;2023-10-19T07:17:56;11.50;;;8.63;;
4575;SDS011;2300;51.874;8.430;2023-10-19T07:20:23;12.10;;;8.97;;
4575;SDS011;2300;51.874;8.430;2023-10-19T07:22:54;12.70;;;8.57;;
4575;SDS011;2300;51.874;8.430;2023-10-19T07:25:21;9.87;;;8.37;;
4575;SDS011;2300;51.874;8.430;2023-10-19T07:27:48;11.20;;;8.80;;
4575;SDS011;2300;51.874;8.430;2023-10-19T07:30:16;11.27;;;8.80;;
4575;SDS011;2300;51.874;8.430;2023-10-19T07:32:47;9.83;;;8.23;;
4575;SDS011;2300;51.874;8.430;2023-10-19T07:35:19;12.60;;;9.20;;
4575;SDS011;2300;51.874;8.430;2023-10-19T07:37:46;9.63;;;8.63;;
4575;SDS011;2300;51.874;8.430;2023-10-19T07:40:14;10.80;;;8.17;;
4575;SDS011;2300;51.874;8.430;2023-10-19T07:42:40;10.43;;;8.10;;
4575;SDS011;2300;51.874;8.430;2023-10-19T07:45:07;10.33;;;7.97;;
4575;SDS011;2300;51.874;8.430;2023-10-19T07:47:36;9.37;;;7.93;;
4575;SDS011;2300;51.874;8.430;2023-10-19T07:50:06;9.80;;;7.43;;
4575;SDS011;2300;51.874;8.430;2023-10-19T07:52:37;12.77;;;7.97;;
4575;SDS011;2300;51.874;8.430;2023-10-19T07:55:04;11.10;;;7.17;;
4575;SDS011;2300;51.874;8.430;2023-10-19T07:57:32;10.60;;;7.13;;
4575;SDS011;2300;51.874;8.430;2023-10-19T07:59:59;11.07;;;7.03;;
4575;SDS011;2300;51.874;8.430;2023-10-19T08:02:26;9.87;;;6.53;;
4575;SDS011;2300;51.874;8.430;2023-10-19T08:04:53;13.87;;;6.93;;
4575;SDS011;2300;51.874;8.430;2023-10-19T08:07:22;11.47;;;6.37;;
4575;SDS011;2300;51.874;8.430;2023-10-19T08:09:51;8.37;;;6.33;;
4575;SDS011;2300;51.874;8.430;2023-10-19T08:12:18;8.82;;;5.53;;
4575;SDS011;2300;51.874;8.430;2023-10-19T08:14:44;13.73;;;6.72;;
4575;SDS011;2300;51.874;8.430;2023-10-19T08:17:11;9.85;;;6.30;;
4575;SDS011;2300;51.874;8.430;2023-10-19T08:19:38;9.30;;;6.40;;
4575;SDS011;2300;51.874;8.430;2023-10-19T08:22:05;7.78;;;5.80;;
4575;SDS011;2300;51.874;8.430;2023-10-19T08:24:33;7.40;;;5.82;;
4575;SDS011;2300;51.874;8.430;2023-10-19T08:27:01;8.90;;;6.40;;
4575;SDS011;2300;51.874;8.430;2023-10-19T08:29:30;8.98;;;6.22;;
4575;SDS011;2300;51.874;8.430;2023-10-19T08:31:57;8.45;;;5.88;;
4575;SDS011;2300;51.874;8.430;2023-10-19T08:34:24;8.77;;;5.60;;
4575;SDS011;2300;51.874;8.430;2023-10-19T08:36:50;10.80;;;4.97;;
4575;SDS011;2300;51.874;8.430;2023-10-19T08:39:19;6.30;;;4.90;;
4575;SDS011;2300;51.874;8.430;2023-10-19T08:41:47;7.05;;;5.22;;
4575;SDS011;2300;51.874;8.430;2023-10-19T08:44:18;8.30;;;5.03;;
4575;SDS011;2300;51.874;8.430;2023-10-19T08:46:44;8.73;;;4.93;;
4575;SDS011;2300;51.874;8.430;2023-10-19T08:49:13;8.00;;;4.80;;
4575;SDS011;2300;51.874;8.430;2023-10-19T08:51:42;8.63;;;4.20;;
4575;SDS011;2300;51.874;8.430;2023-10-19T08:54:10;7.38;;;3.92;;
4575;SDS011;2300;51.874;8.430;2023-10-19T08:56:38;7.80;;;4.40;;
4575;SDS011;2300;51.874;8.430;2023-10-19T08:59:07;7.10;;;4.15;;
4575;SDS011;2300;51.874;8.430;2023-10-19T09:01:36;10.57;;;4.57;;
4575;SDS011;2300;51.874;8.430;2023-10-19T09:04:03;7.13;;;4.47;;
4575;SDS011;2300;51.874;8.430;2023-10-19T09:06:31;10.40;;;4.80;;
4575;SDS011;2300;51.874;8.430;2023-10-19T09:09:06;10.05;;;4.28;;
4575;SDS011;2300;51.874;8.430;2023-10-19T09:11:34;11.23;;;4.78;;
4575;SDS011;2300;51.874;8.430;2023-10-19T09:14:01;6.88;;;4.95;;
4575;SDS011;2300;51.874;8.430;2023-10-19T09:16:30;8.77;;;4.80;;
4575;SDS011;2300;51.874;8.430;2023-10-19T09:18:57;12.00;;;5.53;;
4575;SDS011;2300;51.874;8.430;2023-10-19T09:21:25;10.77;;;4.80;;
4575;SDS011;2300;51.874;8.430;2023-10-19T09:23:53;10.00;;;4.88;;
4575;SDS011;2300;51.874;8.430;2023-10-19T09:26:20;7.80;;;4.75;;
4575;SDS011;2300;51.874;8.430;2023-10-19T09:28:48;5.45;;;3.78;;
4575;SDS011;2300;51.874;8.430;2023-10-19T09:31:16;7.40;;;4.15;;
4575;SDS011;2300;51.874;8.430;2023-10-19T09:33:45;6.28;;;4.00;;
4575;SDS011;2300;51.874;8.430;2023-10-19T09:36:14;7.53;;;4.22;;
4575;SDS011;2300;51.874;8.430;2023-10-19T09:38:44;6.90;;;4.15;;
4575;SDS011;2300;51.874;8.430;2023-10-19T09:41:13;7.28;;;3.60;;
4575;SDS011;2300;51.874;8.430;2023-10-19T09:43:44;5.55;;;3.80;;
4575;SDS011;2300;51.874;8.430;2023-10-19T09:46:11;7.35;;;3.47;;
4575;SDS011;2300;51.874;8.430;2023-10-19T09:48:47;6.18;;;4.10;;
4575;SDS011;2300;51.874;8.430;2023-10-19T09:51:15;7.13;;;4.03;;
4575;SDS011;2300;51.874;8.430;2023-10-19T09:53:45;6.25;;;4.15;;
4575;SDS011;2300;51.874;8.430;2023-10-19T09:56:18;6.72;;;4.20;;
4575;SDS011;2300;51.874;8.430;2023-10-19T09:58:48;6.47;;;3.90;;
4575;SDS011;2300;51.874;8.430;2023-10-19T10:01:18;10.18;;;4.25;;
4575;SDS011;2300;51.874;8.430;2023-10-19T10:03:48;8.63;;;4.07;;
4575;SDS011;2300;51.874;8.430;2023-10-19T10:06:16;8.55;;;4.05;;
4575;SDS011;2300;51.874;8.430;2023-10-19T10:08:52;7.88;;;3.60;;
4575;SDS011;2300;51.874;8.430;2023-10-19T10:11:20;7.53;;;3.30;;
4575;SDS011;2300;51.874;8.430;2023-10-19T10:13:49;6.10;;;3.60;;
4575;SDS011;2300;51.874;8.430;2023-10-19T10:16:17;5.20;;;2.67;;
4575;SDS011;2300;51.874;8.430;2023-10-19T10:18:46;5.90;;;3.35;;
4575;SDS011;2300;51.874;8.430;2023-10-19T10:21:17;5.18;;;3.10;;
4575;SDS011;2300;51.874;8.430;2023-10-19T10:23:47;4.60;;;3.35;;
4575;SDS011;2300;51.874;8.430;2023-10-19T10:26:15;5.03;;;3.55;;
4575;SDS011;2300;51.874;8.430;2023-10-19T10:28:45;7.85;;;3.60;;
4575;SDS011;2300;51.874;8.430;2023-10-19T10:31:14;7.28;;;3.42;;
4575;SDS011;2300;51.874;8.430;2023-10-19T10:33:46;9.38;;;3.78;;
4575;SDS011;2300;51.874;8.430;2023-10-19T10:36:15;6.80;;;4.07;;
4575;SDS011;2300;51.874;8.430;2023-10-19T10:38:43;8.50;;;3.67;;
4575;SDS011;2300;51.874;8.430;2023-10-19T10:41:11;5.15;;;3.40;;
4575;SDS011;2300;51.874;8.430;2023-10-19T10:43:48;5.75;;;3.65;;
4575;SDS011;2300;51.874;8.430;2023-10-19T10:46:19;6.28;;;3.10;;
4575;SDS011;2300;51.874;8.430;2023-10-19T10:48:46;6.13;;;3.80;;
4575;SDS011;2300;51.874;8.430;2023-10-19T10:51:18;6.78;;;3.70;;
4575;SDS011;2300;51.874;8.430;2023-10-19T10:53:47;5.57;;;3.30;;
4575;SDS011;2300;51.874;8.430;2023-10-19T10:56:14;5.15;;;3.50;;
4575;SDS011;2300;51.874;8.430;2023-10-19T10:58:41;6.72;;;2.95;;
4575;SDS011;2300;51.874;8.430;2023-10-19T11:01:08;7.45;;;3.65;;
4575;SDS011;2300;51.874;8.430;2023-10-19T11:03:36;7.05;;;3.47;;
4575;SDS011;2300;51.874;8.430;2023-10-19T11:06:03;7.32;;;3.50;;
4575;SDS011;2300;51.874;8.430;2023-10-19T11:08:31;6.80;;;3.35;;
4575;SDS011;2300;51.874;8.430;2023-10-19T11:11:01;7.28;;;3.45;;
4575;SDS011;2300;51.874;8.430;2023-10-19T11:13:30;7.07;;;3.30;;
4575;SDS011;2300;51.874;8.430;2023-10-19T11:15:58;5.53;;;3.25;;
4575;SDS011;2300;51.874;8.430;2023-10-19T11:18:29;8.10;;;3.55;;
4575;SDS011;2300;51.874;8.430;2023-10-19T11:20:58;5.43;;;3.28;;
4575;SDS011;2300;51.874;8.430;2023-10-19T11:23:37;8.55;;;3.55;;
4575;SDS011;2300;51.874;8.430;2023-10-19T11:26:06;8.38;;;3.72;;
4575;SDS011;2300;51.874;8.430;2023-10-19T11:28:33;5.30;;;3.30;;
4575;SDS011;2300;51.874;8.430;2023-10-19T11:31:10;5.20;;;3.47;;
4575;SDS011;2300;51.874;8.430;2023-10-19T11:33:37;7.15;;;3.50;;
4575;SDS011;2300;51.874;8.430;2023-10-19T11:36:05;5.97;;;2.97;;
4575;SDS011;2300;51.874;8.430;2023-10-19T11:38:32;7.05;;;3.00;;
4575;SDS011;2300;51.874;8.430;2023-10-19T11:41:00;5.47;;;3.20;;
4575;SDS011;2300;51.874;8.430;2023-10-19T11:43:28;5.70;;;3.17;;
4575;SDS011;2300;51.874;8.430;2023-10-19T11:45:54;4.88;;;3.17;;
4575;SDS011;2300;51.874;8.430;2023-10-19T11:48:21;6.68;;;3.10;;
4575;SDS011;2300;51.874;8.430;2023-10-19T11:50:48;5.10;;;3.30;;
4575;SDS011;2300;51.874;8.430;2023-10-19T11:53:15;6.18;;;3.08;;
4575;SDS011;2300;51.874;8.430;2023-10-19T11:55:41;4.25;;;2.65;;
4575;SDS011;2300;51.874;8.430;2023-10-19T11:58:10;5.13;;;2.50;;
4575;SDS011;2300;51.874;8.430;2023-10-19T12:00:39;7.57;;;3.05;;
4575;SDS011;2300;51.874;8.430;2023-10-19T12:03:08;6.97;;;3.40;;
4575;SDS011;2300;51.874;8.430;2023-10-19T12:05:35;6.05;;;3.22;;
4575;SDS011;2300;51.874;8.430;2023-10-19T12:08:03;5.38;;;2.83;;
4575;SDS011;2300;51.874;8.430;2023-10-19T12:10:31;5.80;;;3.22;;
4575;SDS011;2300;51.874;8.430;2023-10-19T12:13:00;7.03;;;3.08;;
4575;SDS011;2300;51.874;8.430;2023-10-19T12:15:29;6.60;;;3.35;;
4575;SDS011;2300;51.874;8.430;2023-10-19T12:17:57;8.68;;;3.10;;
4575;SDS011;2300;51.874;8.430;2023-10-19T12:20:24;9.02;;;2.67;;
4575;SDS011;2300;51.874;8.430;2023-10-19T12:22:51;6.85;;;3.00;;
4575;SDS011;2300;51.874;8.430;2023-10-19T12:25:19;6.57;;;2.92;;
4575;SDS011;2300;51.874;8.430;2023-10-19T12:27:46;7.60;;;3.10;;
4575;SDS011;2300;51.874;8.430;2023-10-19T12:30:13;7.50;;;2.88;;
4575;SDS011;2300;51.874;8.430;2023-10-19T12:32:46;8.02;;;2.67;;
4575;SDS011;2300;51.874;8.430;2023-10-19T12:35:16;8.20;;;2.30;;
4575;SDS011;2300;51.874;8.430;2023-10-19T12:37:45;8.20;;;3.05;;
4575;SDS011;2300;51.874;8.430;2023-10-19T12:40:16;7.80;;;2.72;;
4575;SDS011;2300;51.874;8.430;2023-10-19T12:42:52;6.65;;;2.58;;
4575;SDS011;2300;51.874;8.430;2023-10-19T12:45:20;7.88;;;2.67;;
4575;SDS011;2300;51.874;8.430;2023-10-19T12:47:48;5.68;;;2.55;;
4575;SDS011;2300;51.874;8.430;2023-10-19T12:50:17;6.15;;;3.28;;
4575;SDS011;2300;51.874;8.430;2023-10-19T12:52:47;6.22;;;2.80;;
4575;SDS011;2300;51.874;8.430;2023-10-19T12:55:14;6.30;;;2.85;;
4575;SDS011;2300;51.874;8.430;2023-10-19T12:57:41;8.18;;;3.10;;
4575;SDS011;2300;51.874;8.430;2023-10-19T13:00:08;5.45;;;2.92;;
4575;SDS011;2300;51.874;8.430;2023-10-19T13:02:52;6.57;;;2.83;;
4575;SDS011;2300;51.874;8.430;2023-10-19T13:05:25;8.80;;;2.80;;
4575;SDS011;2300;51.874;8.430;2023-10-19T13:07:53;5.40;;;2.63;;
4575;SDS011;2300;51.874;8.430;2023-10-19T13:10:23;4.38;;;2.22;;
4575;SDS011;2300;51.874;8.430;2023-10-19T13:12:57;8.43;;;2.35;;
4575;SDS011;2300;51.874;8.430;2023-10-19T13:15:25;4.93;;;2.70;;
4575;SDS011;2300;51.874;8.430;2023-10-19T13:17:57;7.47;;;2.67;;
4575;SDS011;2300;51.874;8.430;2023-10-19T13:20:25;6.45;;;2.30;;
4575;SDS011;2300;51.874;8.430;2023-10-19T13:22:52;8.07;;;2.83;;
4575;SDS011;2300;51.874;8.430;2023-10-19T13:25:18;7.22;;;2.50;;
4575;SDS011;2300;51.874;8.430;2023-10-19T13:27:53;6.75;;;3.00;;
4575;SDS011;2300;51.874;8.430;2023-10-19T13:30:20;9.73;;;3.08;;
4575;SDS011;2300;51.874;8.430;2023-10-19T13:32:48;8.52;;;3.15;;
4575;SDS011;2300;51.874;8.430;2023-10-19T13:35:16;9.57;;;3.35;;
4575;SDS011;2300;51.874;8.430;2023-10-19T13:37:43;5.70;;;2.97;;
4575;SDS011;2300;51.874;8.430;2023-10-19T13:40:10;8.63;;;3.72;;
4575;SDS011;2300;51.874;8.430;2023-10-19T13:42:37;9.30;;;3.20;;
4575;SDS011;2300;51.874;8.430;2023-10-19T13:45:04;7.93;;;2.92;;
4575;SDS011;2300;51.874;8.430;2023-10-19T13:47:31;7.45;;;3.13;;
4575;SDS011;2300;51.874;8.430;2023-10-19T13:49:58;6.93;;;3.08;;
4575;SDS011;2300;51.874;8.430;2023-10-19T13:52:27;7.68;;;3.15;;
4575;SDS011;2300;51.874;8.430;2023-10-19T13:54:53;8.38;;;2.75;;
4575;SDS011;2300;51.874;8.430;2023-10-19T13:57:21;8.68;;;3.65;;
4575;SDS011;2300;51.874;8.430;2023-10-19T13:59:47;7.55;;;3.08;;
4575;SDS011;2300;51.874;8.430;2023-10-19T14:02:14;5.30;;;2.90;;
4575;SDS011;2300;51.874;8.430;2023-10-19T14:04:41;11.10;;;3.10;;
4575;SDS011;2300;51.874;8.430;2023-10-19T14:07:08;7.35;;;2.70;;
4575;SDS011;2300;51.874;8.430;2023-10-19T14:09:36;5.05;;;2.50;;
4575;SDS011;2300;51.874;8.430;2023-10-19T14:12:03;6.82;;;3.10;;
4575;SDS011;2300;51.874;8.430;2023-10-19T14:14:30;6.28;;;2.38;;
4575;SDS011;2300;51.874;8.430;2023-10-19T14:16:57;7.97;;;3.00;;
4575;SDS011;2300;51.874;8.430;2023-10-19T14:19:23;8.20;;;3.25;;
4575;SDS011;2300;51.874;8.430;2023-10-19T14:21:50;5.18;;;2.40;;
4575;SDS011;2300;51.874;8.430;2023-10-19T14:24:17;8.32;;;3.00;;
4575;SDS011;2300;51.874;8.430;2023-10-19T14:26:46;9.32;;;2.70;;
4575;SDS011;2300;51.874;8.430;2023-10-19T14:29:13;5.72;;;2.63;;
4575;SDS011;2300;51.874;8.430;2023-10-19T14:31:39;8.23;;;2.92;;
4575;SDS011;2300;51.874;8.430;2023-10-19T14:34:06;5.97;;;2.78;;
4575;SDS011;2300;51.874;8.430;2023-10-19T14:36:34;6.35;;;2.50;;
4575;SDS011;2300;51.874;8.430;2023-10-19T14:39:00;9.75;;;2.88;;
4575;SDS011;2300;51.874;8.430;2023-10-19T14:41:27;10.02;;;2.95;;
4575;SDS011;2300;51.874;8.430;2023-10-19T14:43:55;8.60;;;3.10;;
4575;SDS011;2300;51.874;8.430;2023-10-19T14:46:24;10.80;;;3.10;;
4575;SDS011;2300;51.874;8.430;2023-10-19T14:48:52;8.15;;;3.10;;
4575;SDS011;2300;51.874;8.430;2023-10-19T14:51:18;8.18;;;3.00;;
4575;SDS011;2300;51.874;8.430;2023-10-19T14:53:45;11.00;;;3.10;;
4575;SDS011;2300;51.874;8.430;2023-10-19T14:56:12;7.07;;;2.67;;
4575;SDS011;2300;51.874;8.430;2023-10-19T14:58:38;7.35;;;3.00;;
4575;SDS011;2300;51.874;8.430;2023-10-19T15:01:10;7.43;;;3.28;;
4575;SDS011;2300;51.874;8.430;2023-10-19T15:03:41;9.80;;;3.30;;
4575;SDS011;2300;51.874;8.430;2023-10-19T15:06:08;9.73;;;3.70;;
4575;SDS011;2300;51.874;8.430;2023-10-19T15:08:35;9.93;;;2.90;;
4575;SDS011;2300;51.874;8.430;2023-10-19T15:11:02;12.18;;;3.50;;